Home   Weather   India   Dindigul   Past weeks
Flag for India

Past Weather in Dindigul, Tamil Nadu, India — Yesterday and Last 2 Weeks

Currently: 79 °F. Fog. (Weather station: Tiruchchirapalli, India). See more current weather

Past Weather in Dindigul — Graph

°F

Dindigul Temperature Yesterday

Maximum temperature yesterday: 100 °F (at 1:30 pm)
Minimum temperature yesterday: 81 °F (at 7:00 pm)
Average temperature yesterday: 87 °F

High & Low Weather Summary for the Past Weeks

 TemperatureHumidityPressure
High102 °F (Jul 5, 3:30 pm)94% (Jun 30, 12:30 am)29.83 "Hg (Jun 30, 12:30 am)
Low79 °F (Jun 28, 5:30 am)37% (Jul 5, 3:30 pm)29.59 "Hg (Jul 5, 3:30 pm)
Average89 °F67%29.71 "Hg
* Reported Jun 28 4:30 am — Jul 13 4:30 am, Dindigul. Weather by CustomWeather, © 2024

Note: Actual official high and low records may vary slightly from our data, if they occured in-between our weather recording intervals... More about our weather records

Dindigul Weather History for the Previous 24 Hours

Scroll right to see more
 ConditionsComfort  
Time TempWeatherWind HumidityBarometerVisibility
4:30 am
Sat, Jul 13
81 °FFog.9 mph89%29.65 "Hg2 mi
4:00 am81 °FFog.9 mph89%29.68 "Hg2 mi
3:30 am81 °FFog.12 mph89%29.65 "Hg2 mi
3:00 am81 °FFog.14 mph89%29.65 "Hg2 mi
2:30 am81 °FPartly cloudy.13 mph89%29.68 "Hg2 mi
2:00 am81 °FPartly cloudy.12 mph89%29.68 "Hg2 mi
1:30 am79 °FPartly cloudy.16 mph89%29.68 "Hg2 mi
1:00 am79 °FLight rain. Partly cloudy.14 mph89%29.71 "Hg2 mi
12:30 am81 °FRain. Partly cloudy.14 mph89%29.71 "Hg2 mi
12:00 am82 °FPartly cloudy.14 mph79%29.71 "Hg2 mi
11:00 pm
Fri, Jul 12
86 °FFog.7 mph79%29.74 "Hg3 mi
10:30 pm82 °FPartly cloudy.12 mph84%29.74 "Hg2 mi
10:00 pm82 °FFog.12 mph89%29.74 "Hg2 mi
9:30 pm81 °FFog.7 mph94%29.74 "Hg2 mi
9:00 pm81 °FFog.7 mph94%29.74 "Hg2 mi
8:30 pm81 °FFog.7 mph94%29.74 "Hg2 mi
8:00 pm81 °FFog.12 mph94%29.74 "Hg2 mi
7:30 pm81 °FFog.12 mph89%29.71 "Hg2 mi
7:00 pm81 °FDrizzle. Broken clouds.12 mph89%29.68 "Hg2 mi
6:00 pm86 °FFog.9 mph79%29.65 "Hg2 mi
5:30 pm88 °FFog.9 mph79%29.62 "Hg2 mi
5:00 pm88 °FFog.9 mph89%29.59 "Hg2 mi
4:30 pm84 °FLight rain. Broken clouds.9 mph84%29.59 "Hg2 mi
4:00 pm91 °FRain. Broken clouds.17 mph63%29.59 "Hg3 mi
3:30 pm95 °FScattered clouds.12 mph60%29.59 "Hg3 mi
2:30 pm99 °FScattered clouds.9 mph44%29.62 "Hg4 mi
1:30 pm100 °FScattered clouds.12 mph45%29.65 "Hg4 mi
1:00 pm99 °FScattered clouds.9 mph47%29.65 "Hg4 mi
12:30 pm99 °FScattered clouds.12 mph47%29.68 "Hg4 mi
12:00 pm99 °FScattered clouds.14 mph50%29.68 "Hg4 mi
11:30 am97 °FScattered clouds.12 mph53%29.71 "Hg4 mi
10:00 am95 °FScattered clouds.16 mph56%29.74 "Hg3 mi
9:30 am91 °FScattered clouds.16 mph59%29.74 "Hg3 mi
8:30 am90 °FScattered clouds.9 mph67%29.74 "Hg3 mi
7:30 am84 °FScattered clouds.12 mph74%29.74 "Hg3 mi
6:30 am82 °FFog.5 mph79%29.71 "Hg3 mi
6:00 am82 °FFog.7 mph79%29.71 "Hg3 mi
5:30 am82 °FFog.6 mph84%29.71 "Hg3 mi
5:00 am84 °FFog.3 mph84%29.71 "Hg3 mi
Weather by CustomWeather, © 2024

See weather overview